Time;durP1;ratioP1;P1;durP2;ratioP2;P2;SDS_P1;SDS_P2;PMS_P1;PMS_P2;Temp;Humidity;BMP_temperature;BMP_pressure;BME280_temperature;BME280_humidity;BME280_pressure;Samples;Min_cycle;Max_cycle;Signal;HPM_P1;HPM_P2
2021/04/04 04:00:30;;;;;;;7.57;5.65;;;4.90;99.90;;;;;;5825492;23;21595;-69
2021/04/04 04:02:57;;;;;;;14.90;6.68;;;4.90;99.90;;;;;;4897130;29;20287;-70
2021/04/04 04:05:24;;;;;;;10.23;4.85;;;4.90;99.90;;;;;;4894293;29;20294;-71
2021/04/04 04:07:52;;;;;;;13.77;5.25;;;4.90;99.90;;;;;;4896996;29;20636;-72
2021/04/04 04:10:19;;;;;;;6.95;5.05;;;4.90;99.90;;;;;;4895323;29;20203;-70
2021/04/04 04:12:47;;;;;;;10.70;4.60;;;4.90;99.90;;;;;;4878174;29;20276;-71
2021/04/04 04:15:15;;;;;;;9.02;4.75;;;4.90;99.90;;;;;;4878486;29;20204;-71
2021/04/04 04:17:44;;;;;;;7.05;4.47;;;4.90;99.90;;;;;;4878607;29;20311;-71
2021/04/04 04:20:12;;;;;;;11.40;5.45;;;4.80;99.90;;;;;;4878269;29;20208;-71
2021/04/04 04:22:39;;;;;;;9.65;5.03;;;4.80;99.90;;;;;;4878400;29;20223;-70
2021/04/04 04:25:07;;;;;;;7.68;4.75;;;4.80;99.90;;;;;;4878210;29;20208;-70
2021/04/04 04:27:34;;;;;;;11.07;5.15;;;4.90;99.90;;;;;;4878358;29;20224;-70
2021/04/04 04:30:02;;;;;;;12.00;5.15;;;4.90;99.90;;;;;;4878798;29;20212;-70
2021/04/04 04:32:32;;;;;;;10.00;5.35;;;4.90;99.90;;;;;;4878332;29;20267;-70
2021/04/04 04:35:02;;;;;;;10.95;6.00;;;4.90;99.90;;;;;;4878374;29;20212;-70
2021/04/04 04:37:30;;;;;;;18.35;5.28;;;4.90;99.90;;;;;;4878206;29;20215;-71
2021/04/04 04:39:58;;;;;;;11.18;5.40;;;4.90;99.90;;;;;;4878892;29;20223;-71
2021/04/04 04:42:25;;;;;;;15.43;5.22;;;4.90;99.90;;;;;;4878037;29;20243;-71
2021/04/04 04:44:52;;;;;;;9.50;5.82;;;4.90;99.90;;;;;;4878082;29;20733;-71
2021/04/04 04:47:18;;;;;;;9.23;5.10;;;4.90;99.90;;;;;;4877864;29;20266;-71
2021/04/04 04:49:45;;;;;;;11.32;4.57;;;4.90;99.90;;;;;;4878177;29;20669;-71
2021/04/04 04:52:13;;;;;;;16.23;5.10;;;4.90;99.90;;;;;;4877750;29;20766;-71
2021/04/04 04:54:41;;;;;;;10.07;5.20;;;4.90;99.90;;;;;;4878414;29;20211;-71
2021/04/04 04:57:09;;;;;;;10.68;5.20;;;4.90;99.90;;;;;;4877835;29;20204;-71
2021/04/04 04:59:35;;;;;;;10.98;5.43;;;4.90;99.90;;;;;;4879608;29;20211;-71
2021/04/04 05:02:04;;;;;;;8.90;4.75;;;5.00;99.90;;;;;;4881473;29;20311;-71
2021/04/04 05:04:31;;;;;;;10.88;4.68;;;5.00;99.90;;;;;;4882008;29;20224;-72
2021/04/04 05:06:58;;;;;;;8.95;4.40;;;5.00;99.90;;;;;;4880876;29;20220;-72
2021/04/04 05:09:26;;;;;;;11.73;4.95;;;5.00;99.90;;;;;;4881555;29;20626;-73
2021/04/04 05:11:54;;;;;;;10.75;5.00;;;5.00;99.90;;;;;;4881132;29;20284;-74
2021/04/04 05:14:20;;;;;;;20.17;5.70;;;5.00;99.90;;;;;;4880331;29;20572;-74
2021/04/04 05:16:47;;;;;;;7.28;5.20;;;5.10;99.90;;;;;;4881196;29;20298;-74
2021/04/04 05:19:15;;;;;;;10.57;5.03;;;5.00;99.90;;;;;;4881379;29;20208;-74
2021/04/04 05:21:42;;;;;;;12.93;5.25;;;5.10;99.90;;;;;;4880816;29;20223;-74
2021/04/04 05:24:10;;;;;;;9.52;4.82;;;5.10;99.90;;;;;;4880809;29;20220;-74
2021/04/04 05:26:39;;;;;;;9.07;4.05;;;5.10;99.90;;;;;;4881124;29;20260;-74
2021/04/04 05:29:08;;;;;;;13.43;4.60;;;5.10;99.90;;;;;;4880277;29;20271;-74
2021/04/04 05:31:43;;;;;;;9.60;5.00;;;5.10;99.90;;;;;;4880721;29;20223;-74
2021/04/04 05:34:11;;;;;;;14.10;5.53;;;5.20;99.90;;;;;;4880363;29;20208;-74
2021/04/04 05:36:46;;;;;;;8.40;4.10;;;5.20;99.90;;;;;;4880790;29;20212;-74
2021/04/04 05:39:12;;;;;;;6.18;3.85;;;5.30;99.90;;;;;;4880695;29;20649;-74
2021/04/04 05:41:42;;;;;;;5.85;4.78;;;5.30;99.90;;;;;;4881070;29;20575;-74
2021/04/04 05:44:10;;;;;;;7.35;4.90;;;5.40;99.90;;;;;;4879902;29;20226;-74
2021/04/04 05:46:43;;;;;;;4.85;4.13;;;5.40;99.90;;;;;;4880869;29;20243;-73
2021/04/04 05:49:17;;;;;;;10.93;4.40;;;5.50;99.90;;;;;;4880750;29;20211;-72
2021/04/04 05:51:50;;;;;;;14.05;4.47;;;5.60;99.90;;;;;;4880252;29;20709;-74
2021/04/04 05:54:36;;;;;;;5.97;3.72;;;5.70;99.90;;;;;;4880730;29;20227;-74
2021/04/04 05:57:11;;;;;;;7.70;4.15;;;5.70;99.90;;;;;;4880628;29;20196;-74
2021/04/04 05:59:43;;;;;;;7.22;3.95;;;5.90;99.90;;;;;;4880713;29;20208;-74
2021/04/04 06:03:03;;;;;;;7.22;3.67;;;6.00;99.90;;;;;;4879794;29;20236;-73
2021/04/04 06:06:02;;;;;;;6.63;3.42;;;6.10;99.90;;;;;;4841303;29;20205;-74
2021/04/04 06:08:43;;;;;;;7.35;3.78;;;6.20;99.90;;;;;;4879889;29;20208;-74
2021/04/04 06:11:22;;;;;;;9.48;3.90;;;6.20;99.90;;;;;;4878792;29;20255;-74
2021/04/04 06:14:01;;;;;;;8.80;3.20;;;6.30;99.90;;;;;;4879573;29;20534;-73
2021/04/04 06:16:41;;;;;;;12.00;4.75;;;6.40;99.90;;;;;;4880144;29;20199;-74
2021/04/04 06:19:23;;;;;;;4.30;2.70;;;6.30;99.90;;;;;;4880086;29;20597;-73
2021/04/04 06:22:00;;;;;;;16.48;3.83;;;6.30;99.90;;;;;;4879691;29;20231;-73
2021/04/04 06:24:32;;;;;;;7.80;3.60;;;6.30;99.90;;;;;;4879915;29;20334;-73
2021/04/04 06:27:06;;;;;;;11.50;3.28;;;6.40;99.90;;;;;;4880250;29;20351;-73
2021/04/04 06:29:44;;;;;;;6.22;5.63;;;6.40;99.90;;;;;;4879614;29;20208;-73
2021/04/04 06:32:20;;;;;;;11.90;7.53;;;6.40;99.90;;;;;;4878150;29;20297;-73
2021/04/04 06:34:48;;;;;;;7.50;3.75;;;6.50;99.90;;;;;;4872908;29;20216;-72
2021/04/04 06:37:39;;;;;;;6.18;4.13;;;6.50;99.90;;;;;;4879387;29;20645;-72
2021/04/04 06:40:08;;;;;;;9.43;3.97;;;6.60;99.90;;;;;;4861393;29;20697;-73
2021/04/04 06:42:52;;;;;;;9.13;3.50;;;6.60;99.90;;;;;;4865005;29;20200;-72
2021/04/04 06:45:30;;;;;;;9.68;3.05;;;6.60;99.90;;;;;;4879830;29;20220;-72
2021/04/04 06:48:05;;;;;;;4.03;2.08;;;6.60;99.90;;;;;;4879192;29;20211;-73
2021/04/04 06:50:37;;;;;;;8.73;2.78;;;6.70;99.90;;;;;;4879828;29;20532;-73
2021/04/04 06:53:19;;;;;;;5.35;2.95;;;6.70;99.90;;;;;;4877704;29;20215;-73
2021/04/04 06:55:54;;;;;;;9.80;3.10;;;6.80;99.90;;;;;;4880126;29;20208;-72
2021/04/04 06:58:33;;;;;;;6.38;3.50;;;6.90;99.90;;;;;;4875129;29;20236;-72
2021/04/04 07:01:11;;;;;;;15.95;5.28;;;6.80;99.90;;;;;;4878341;29;20235;-73
2021/04/04 07:03:47;;;;;;;55.28;19.67;;;6.90;99.90;;;;;;4877375;29;20227;-70
2021/04/04 07:06:44;;;;;;;4.80;2.88;;;6.90;99.90;;;;;;4879422;29;20231;-70
2021/04/04 07:09:35;;;;;;;6.32;2.92;;;6.90;99.90;;;;;;4875449;29;20231;-71
2021/04/04 07:12:13;;;;;;;8.68;3.42;;;6.90;99.90;;;;;;4866344;29;20227;-70
2021/04/04 07:14:53;;;;;;;5.32;2.42;;;7.00;99.90;;;;;;4879414;29;20660;-70
2021/04/04 07:17:38;;;;;;;8.63;3.67;;;7.10;99.90;;;;;;4878964;29;20208;-72
2021/04/04 07:20:33;;;;;;;8.10;2.72;;;7.10;99.90;;;;;;4874973;29;20212;-72
2021/04/04 07:23:27;;;;;;;4.40;4.00;;;7.20;99.90;;;;;;4853005;29;20669;-72
2021/04/04 07:26:00;;;;;;;3.05;2.70;;;7.20;99.90;;;;;;4878391;29;20228;-71
2021/04/04 07:28:42;;;;;;;11.05;3.20;;;7.20;99.90;;;;;;4878804;29;20227;-72
2021/04/04 07:31:10;;;;;;;4.25;2.63;;;7.20;99.90;;;;;;4874654;29;20291;-73
2021/04/04 07:33:46;;;;;;;11.23;2.60;;;7.20;99.90;;;;;;4878796;29;20212;-71
2021/04/04 07:36:20;;;;;;;2.67;2.45;;;7.30;99.90;;;;;;4877997;29;20204;-71
2021/04/04 07:38:54;;;;;;;4.55;3.15;;;7.30;99.90;;;;;;4878105;29;20732;-72
2021/04/04 07:41:28;;;;;;;4.55;2.00;;;7.30;99.90;;;;;;4878577;29;20243;-71
2021/04/04 07:44:05;;;;;;;3.20;2.88;;;7.40;99.90;;;;;;4877957;29;20268;-72
2021/04/04 07:46:41;;;;;;;4.80;2.42;;;7.40;99.90;;;;;;4877945;29;20223;-72
2021/04/04 07:49:20;;;;;;;3.60;2.60;;;7.40;99.90;;;;;;4878667;29;20243;-71
2021/04/04 07:51:49;;;;;;;8.50;5.40;;;7.40;99.90;;;;;;4861794;29;20306;-72
2021/04/04 07:54:25;;;;;;;6.95;3.80;;;7.40;99.90;;;;;;4878386;29;20215;-73
2021/04/04 07:56:56;;;;;;;4.00;3.70;;;7.40;99.90;;;;;;4876544;29;20609;-71
2021/04/04 07:59:28;;;;;;;3.47;2.90;;;7.40;99.90;;;;;;4878885;29;20588;-71
2021/04/04 08:02:03;;;;;;;7.30;3.08;;;7.40;99.90;;;;;;4877596;29;20700;-71
2021/04/04 08:04:40;;;;;;;7.57;3.35;;;7.50;99.90;;;;;;4878825;29;20218;-71
2021/04/04 08:07:11;;;;;;;2.80;2.70;;;7.50;99.90;;;;;;4877189;29;20370;-71
2021/04/04 08:09:44;;;;;;;7.78;3.20;;;7.50;99.90;;;;;;4876438;29;20529;-71
2021/04/04 08:12:17;;;;;;;14.93;4.47;;;7.60;99.90;;;;;;4877307;29;20239;-71
2021/04/04 08:14:51;;;;;;;5.20;3.40;;;7.70;99.90;;;;;;4877529;29;20299;-71
2021/04/04 08:17:17;;;;;;;6.05;3.78;;;7.70;99.90;;;;;;4868506;29;20215;-71
2021/04/04 08:19:54;;;;;;;3.78;2.88;;;7.70;99.90;;;;;;4877943;29;20231;-71
2021/04/04 08:22:27;;;;;;;9.05;3.15;;;7.70;99.90;;;;;;4876477;29;20223;-71
2021/04/04 08:24:58;;;;;;;6.20;4.78;;;7.70;99.90;;;;;;4877646;29;20208;-71
2021/04/04 08:27:29;;;;;;;10.65;2.88;;;7.70;99.90;;;;;;4876857;29;20247;-71
2021/04/04 08:29:59;;;;;;;4.97;3.13;;;7.80;99.90;;;;;;4877951;29;20605;-71
2021/04/04 08:32:29;;;;;;;7.25;2.92;;;7.80;99.90;;;;;;4870558;29;20239;-71
2021/04/04 08:34:59;;;;;;;4.40;2.50;;;7.80;99.90;;;;;;4875711;29;20219;-71
2021/04/04 08:37:32;;;;;;;4.15;3.40;;;7.80;99.90;;;;;;4880885;29;20234;-71
2021/04/04 08:40:01;;;;;;;38.42;23.67;;;7.80;99.90;;;;;;4881575;29;20637;-71
2021/04/04 08:42:30;;;;;;;8.32;3.22;;;7.80;99.90;;;;;;4881264;29;20287;-71
2021/04/04 08:45:04;;;;;;;10.15;5.63;;;7.90;99.90;;;;;;4881177;29;20208;-69
2021/04/04 08:47:33;;;;;;;3.90;3.00;;;7.90;99.90;;;;;;4879412;29;20595;-70
2021/04/04 08:50:02;;;;;;;4.60;2.55;;;7.90;99.90;;;;;;4873140;29;20235;-70
2021/04/04 08:52:33;;;;;;;9.43;3.30;;;7.90;99.90;;;;;;4870879;29;20290;-73
2021/04/04 08:55:00;;;;;;;5.60;2.70;;;7.90;99.90;;;;;;4878782;29;20227;-71
2021/04/04 08:57:30;;;;;;;7.57;4.43;;;8.00;99.90;;;;;;4880290;29;20242;-71
2021/04/04 08:59:56;;;;;;;6.13;3.53;;;8.00;99.90;;;;;;4880706;29;20223;-71
2021/04/04 09:02:25;;;;;;;5.05;2.50;;;7.90;99.90;;;;;;4879804;29;20252;-71
2021/04/04 09:04:52;;;;;;;3.47;3.17;;;7.90;99.90;;;;;;4881480;29;20287;-71
2021/04/04 09:07:20;;;;;;;5.13;2.55;;;7.90;99.90;;;;;;4881006;29;20236;-71
2021/04/04 09:09:50;;;;;;;11.35;3.70;;;7.90;99.90;;;;;;4880924;29;20208;-72
2021/04/04 09:12:17;;;;;;;5.50;3.17;;;8.00;99.90;;;;;;4866885;29;20243;-72
2021/04/04 09:14:45;;;;;;;6.72;3.22;;;8.00;99.90;;;;;;4881021;29;20215;-72
2021/04/04 09:17:13;;;;;;;5.72;4.22;;;8.10;99.90;;;;;;4880193;29;20200;-72
2021/04/04 09:19:42;;;;;;;3.63;3.25;;;8.20;99.90;;;;;;4880854;29;20689;-71
2021/04/04 09:22:14;;;;;;;8.05;3.50;;;8.20;99.90;;;;;;4880733;29;20234;-74
2021/04/04 09:24:46;;;;;;;10.48;5.68;;;8.20;99.90;;;;;;4881307;29;20235;-75
2021/04/04 09:27:15;;;;;;;7.85;5.00;;;8.20;99.90;;;;;;4881757;29;20224;-74
2021/04/04 09:29:43;;;;;;;13.00;5.45;;;8.20;99.90;;;;;;4883237;29;20216;-73
2021/04/04 09:32:23;;;;;;;6.07;2.97;;;8.10;99.90;;;;;;4880621;29;20230;-70
2021/04/04 09:34:50;;;;;;;4.50;3.20;;;7.90;99.90;;;;;;4862972;29;20633;-75
2021/04/04 09:37:22;;;;;;;3.30;2.45;;;7.80;99.90;;;;;;4875841;29;20685;-73
2021/04/04 09:39:51;;;;;;;3.05;2.70;;;7.80;99.90;;;;;;4880036;29;20689;-73
2021/04/04 09:42:17;;;;;;;3.45;2.67;;;7.80;99.90;;;;;;4882275;29;20236;-73
2021/04/04 09:44:45;;;;;;;3.63;3.33;;;7.80;99.90;;;;;;4881558;29;20578;-68
2021/04/04 09:47:12;;;;;;;3.60;2.70;;;7.80;99.90;;;;;;4879833;29;20303;-68
2021/04/04 09:49:41;;;;;;;3.08;2.72;;;7.80;99.90;;;;;;4880526;29;20208;-68
2021/04/04 09:52:18;;;;;;;4.15;2.53;;;7.90;99.90;;;;;;4879082;29;20228;-68
2021/04/04 09:55:00;;;;;;;4.00;2.60;;;8.00;99.90;;;;;;4879913;29;20736;-68
2021/04/04 09:57:27;;;;;;;3.55;3.10;;;8.10;99.90;;;;;;4879133;29;20211;-68
2021/04/04 09:59:53;;;;;;;4.07;2.58;;;8.20;99.90;;;;;;4879735;29;20204;-67
2021/04/04 10:02:33;;;;;;;3.97;2.97;;;8.30;99.90;;;;;;4878868;29;20265;-67
2021/04/04 10:04:59;;;;;;;3.25;2.95;;;8.30;99.90;;;;;;4888499;29;20208;-70
2021/04/04 10:07:27;;;;;;;3.97;3.17;;;8.20;99.90;;;;;;4887418;29;20296;-70
2021/04/04 10:09:54;;;;;;;7.25;3.45;;;8.10;99.90;;;;;;4881937;29;20227;-68
2021/04/04 10:12:21;;;;;;;7.60;3.60;;;8.00;99.90;;;;;;4878757;29;20231;-68
2021/04/04 10:15:00;;;;;;;3.65;2.70;;;7.90;99.90;;;;;;4879941;29;20259;-68
2021/04/04 10:17:26;;;;;;;3.60;2.85;;;7.90;99.90;;;;;;4879066;29;20291;-68
2021/04/04 10:19:53;;;;;;;3.35;2.83;;;8.00;99.90;;;;;;4880111;29;20204;-68
2021/04/04 10:22:20;;;;;;;2.97;2.75;;;7.90;99.90;;;;;;4878249;29;20227;-68
2021/04/04 10:24:47;;;;;;;8.90;3.58;;;7.90;99.90;;;;;;4879650;29;20223;-68
2021/04/04 10:27:17;;;;;;;3.85;3.20;;;8.00;99.90;;;;;;4879100;29;20240;-68
2021/04/04 10:29:45;;;;;;;5.85;3.10;;;8.00;99.90;;;;;;4879766;29;20219;-68
2021/04/04 10:32:12;;;;;;;6.03;3.60;;;8.00;99.90;;;;;;4878811;29;20235;-68
2021/04/04 10:34:42;;;;;;;3.80;3.50;;;8.00;99.90;;;;;;4880117;29;20260;-68
2021/04/04 10:37:09;;;;;;;7.85;3.35;;;7.90;99.90;;;;;;4878533;29;20563;-68
2021/04/04 10:39:35;;;;;;;4.20;2.33;;;7.90;99.90;;;;;;4880155;29;20603;-68
2021/04/04 10:42:12;;;;;;;5.68;2.78;;;8.00;99.90;;;;;;4878996;29;20235;-68
2021/04/04 10:44:39;;;;;;;3.33;2.92;;;8.10;99.90;;;;;;4883046;29;20623;-71
2021/04/04 10:47:22;;;;;;;4.88;3.20;;;8.20;99.90;;;;;;4884000;29;20235;-71
2021/04/04 10:49:49;;;;;;;2.72;2.55;;;8.40;99.90;;;;;;4885580;29;20600;-71
2021/04/04 10:52:15;;;;;;;4.93;2.88;;;8.50;99.90;;;;;;4883645;29;20243;-70
2021/04/04 10:54:42;;;;;;;4.55;2.85;;;8.50;99.90;;;;;;4884904;29;20215;-71
2021/04/04 10:57:09;;;;;;;4.15;2.60;;;8.50;99.90;;;;;;4882724;29;20208;-69
2021/04/04 10:59:36;;;;;;;4.35;2.75;;;8.40;99.90;;;;;;4884217;29;20657;-71
2021/04/04 11:02:03;;;;;;;3.88;2.60;;;8.40;99.90;;;;;;4880771;29;20738;-68
2021/04/04 11:04:31;;;;;;;5.72;2.80;;;8.30;99.90;;;;;;4880734;29;20668;-68
2021/04/04 11:06:59;;;;;;;2.65;2.45;;;8.30;99.90;;;;;;4880323;29;20216;-68
2021/04/04 11:09:26;;;;;;;3.15;2.80;;;8.30;99.90;;;;;;4880599;29;20283;-68
2021/04/04 11:11:55;;;;;;;4.80;2.92;;;8.30;99.90;;;;;;4880105;29;20238;-68
2021/04/04 11:14:22;;;;;;;3.70;2.95;;;8.40;99.90;;;;;;4878703;29;20211;-67
2021/04/04 11:16:52;;;;;;;3.40;2.60;;;8.50;99.90;;;;;;4878275;29;20204;-68
2021/04/04 11:19:19;;;;;;;4.50;2.80;;;8.60;99.90;;;;;;4878867;29;20228;-69
2021/04/04 11:21:47;;;;;;;2.78;2.00;;;8.50;99.90;;;;;;4877862;29;20256;-68
2021/04/04 11:24:15;;;;;;;5.80;3.33;;;8.60;99.90;;;;;;4877932;29;20219;-68
2021/04/04 11:26:48;;;;;;;5.85;2.92;;;8.60;99.90;;;;;;4878584;29;20288;-69
2021/04/04 11:29:16;;;;;;;10.30;6.82;;;8.50;99.90;;;;;;4878424;29;20207;-71
2021/04/04 11:31:44;;;;;;;6.10;4.88;;;8.60;99.90;;;;;;4877494;29;20315;-71
2021/04/04 11:34:29;;;;;;;5.57;5.15;;;8.50;99.90;;;;;;4875797;29;20204;-72
2021/04/04 11:36:57;;;;;;;4.93;4.05;;;8.40;99.90;;;;;;4877417;29;20211;-72
2021/04/04 11:39:24;;;;;;;7.35;4.35;;;8.40;99.90;;;;;;4878409;29;20221;-72
2021/04/04 11:41:52;;;;;;;4.82;3.40;;;8.40;99.90;;;;;;4878136;29;20288;-71
2021/04/04 11:44:24;;;;;;;5.45;3.35;;;8.50;99.90;;;;;;4878427;29;20608;-71
2021/04/04 11:46:53;;;;;;;4.30;2.85;;;8.50;99.90;;;;;;4877883;29;20224;-72
2021/04/04 11:49:36;;;;;;;4.22;3.72;;;8.50;99.90;;;;;;4878493;29;20231;-70
2021/04/04 11:52:36;;;;;;;5.13;3.45;;;8.50;99.90;;;;;;4877846;29;20712;-70
2021/04/04 11:55:04;;;;;;;6.20;3.60;;;8.50;99.90;;;;;;4878572;29;20211;-69
2021/04/04 11:57:32;;;;;;;4.85;3.40;;;8.60;99.90;;;;;;4877411;29;20219;-70
2021/04/04 12:00:00;;;;;;;7.30;6.60;;;8.60;99.90;;;;;;4878713;29;20664;-69
2021/04/04 12:02:28;;;;;;;12.52;5.05;;;8.60;99.90;;;;;;4877451;29;20298;-69
2021/04/04 12:05:02;;;;;;;5.00;4.28;;;8.70;99.90;;;;;;4878181;29;20657;-69
2021/04/04 12:07:30;;;;;;;4.90;3.20;;;8.70;99.90;;;;;;4872241;29;20365;-69
2021/04/04 12:09:57;;;;;;;6.95;3.35;;;8.70;99.90;;;;;;4874509;29;20211;-70
2021/04/04 12:12:30;;;;;;;4.28;4.00;;;8.60;99.90;;;;;;4881157;29;20234;-70
2021/04/04 12:14:58;;;;;;;5.00;3.10;;;8.60;99.90;;;;;;4873472;29;20208;-70
2021/04/04 12:17:25;;;;;;;5.80;4.10;;;8.50;99.90;;;;;;4870982;29;20219;-70
2021/04/04 12:19:52;;;;;;;4.22;3.92;;;8.50;99.90;;;;;;4880890;29;20204;-70
2021/04/04 12:22:20;;;;;;;5.68;4.10;;;8.40;99.90;;;;;;4880369;29;20254;-70
2021/04/04 12:24:49;;;;;;;7.00;4.20;;;8.40;99.90;;;;;;4881921;29;20212;-70
2021/04/04 12:27:17;;;;;;;4.85;4.47;;;8.40;99.90;;;;;;4881246;29;20247;-70
2021/04/04 12:29:45;;;;;;;7.03;3.72;;;8.50;99.90;;;;;;4881114;29;20215;-70
2021/04/04 12:32:19;;;;;;;5.25;3.88;;;8.50;99.90;;;;;;4876890;29;20238;-70
2021/04/04 12:34:46;;;;;;;6.60;4.20;;;8.60;99.90;;;;;;4878144;29;20207;-70
2021/04/04 12:37:13;;;;;;;4.90;4.40;;;8.70;99.90;;;;;;4876323;29;20666;-70
2021/04/04 12:39:40;;;;;;;6.47;4.35;;;8.90;99.90;;;;;;4876377;29;20208;-71
2021/04/04 12:42:12;;;;;;;8.15;5.15;;;8.90;99.90;;;;;;4880642;29;20224;-71
2021/04/04 12:44:40;;;;;;;8.20;4.78;;;8.90;99.90;;;;;;4881283;29;20196;-70
2021/04/04 12:47:08;;;;;;;8.48;4.18;;;8.90;99.90;;;;;;4878018;29;20231;-70
2021/04/04 12:49:35;;;;;;;6.88;4.78;;;9.00;99.90;;;;;;4880205;29;20212;-70
2021/04/04 12:52:02;;;;;;;4.20;3.83;;;9.00;99.90;;;;;;4879823;29;20288;-70
2021/04/04 12:54:28;;;;;;;6.75;4.65;;;9.00;99.90;;;;;;4879574;29;20822;-70
2021/04/04 12:56:54;;;;;;;5.78;5.15;;;9.00;99.90;;;;;;4880789;29;20205;-71
2021/04/04 12:59:21;;;;;;;6.57;4.18;;;9.00;99.90;;;;;;4879500;29;20326;-70
2021/04/04 13:01:48;;;;;;;9.02;5.20;;;9.00;99.90;;;;;;4879300;29;20543;-70
2021/04/04 13:04:18;;;;;;;5.22;4.60;;;9.10;99.90;;;;;;4876091;29;20663;-71
2021/04/04 13:06:45;;;;;;;8.88;4.10;;;9.20;99.90;;;;;;4877365;29;20216;-70
2021/04/04 13:09:12;;;;;;;6.65;5.72;;;9.30;99.90;;;;;;4880836;29;20204;-70
2021/04/04 13:11:40;;;;;;;7.97;4.95;;;9.40;99.90;;;;;;4880243;29;20228;-71
2021/04/04 13:14:07;;;;;;;5.28;4.43;;;9.40;99.90;;;;;;4879704;29;20259;-70
2021/04/04 13:16:34;;;;;;;4.60;4.20;;;9.30;99.90;;;;;;4878331;29;20204;-70
2021/04/04 13:19:01;;;;;;;4.90;4.50;;;9.30;99.90;;;;;;4880680;29;20215;-69
2021/04/04 13:21:30;;;;;;;4.50;3.38;;;9.20;99.90;;;;;;4879649;29;20258;-70
2021/04/04 13:23:58;;;;;;;5.88;4.38;;;9.30;99.90;;;;;;4879919;29;20212;-69
2021/04/04 13:26:26;;;;;;;6.28;5.85;;;9.20;99.90;;;;;;4880311;29;20291;-70
2021/04/04 13:28:57;;;;;;;10.32;4.55;;;9.20;99.90;;;;;;4880247;29;20661;-69
2021/04/04 13:31:25;;;;;;;5.93;3.80;;;9.10;99.90;;;;;;4880450;29;20228;-69
2021/04/04 13:34:07;;;;;;;8.43;5.85;;;9.10;99.90;;;;;;4878747;29;20212;-69
2021/04/04 13:36:34;;;;;;;4.00;3.05;;;9.20;99.90;;;;;;4880505;29;20247;-69
2021/04/04 13:39:03;;;;;;;5.47;3.53;;;9.20;99.90;;;;;;4878642;29;20223;-69
2021/04/04 13:41:30;;;;;;;4.13;3.30;;;9.30;99.90;;;;;;4877941;29;20228;-70
2021/04/04 13:43:58;;;;;;;3.55;2.85;;;9.30;99.90;;;;;;4879708;29;20216;-70
2021/04/04 13:46:29;;;;;;;7.45;4.40;;;9.30;99.90;;;;;;4867973;29;20753;-70
2021/04/04 13:48:57;;;;;;;5.28;3.67;;;9.30;99.90;;;;;;4862305;29;20239;-70
2021/04/04 13:51:25;;;;;;;3.50;3.20;;;9.30;99.90;;;;;;4861242;29;20306;-70
2021/04/04 13:54:09;;;;;;;3.85;3.55;;;9.30;99.90;;;;;;4877627;29;20204;-70
2021/04/04 13:56:47;;;;;;;5.22;3.22;;;9.30;99.90;;;;;;4880153;29;20207;-70
2021/04/04 13:59:16;;;;;;;3.72;3.20;;;9.30;99.90;;;;;;4879803;29;20215;-70
2021/04/04 14:01:44;;;;;;;3.03;2.70;;;9.20;99.90;;;;;;4879676;29;20699;-70
2021/04/04 14:04:15;;;;;;;5.60;3.35;;;9.20;99.90;;;;;;4876655;29;20220;-70
2021/04/04 14:06:44;;;;;;;5.05;3.38;;;9.10;99.90;;;;;;4879962;29;20220;-70
2021/04/04 14:09:12;;;;;;;7.72;3.88;;;9.10;99.90;;;;;;4879921;29;20262;-70
2021/04/04 14:11:40;;;;;;;3.83;3.47;;;9.10;99.90;;;;;;4880061;29;20232;-70
2021/04/04 14:14:08;;;;;;;5.22;3.00;;;9.10;99.90;;;;;;4879316;29;20222;-70
2021/04/04 14:16:35;;;;;;;4.57;3.20;;;9.10;99.90;;;;;;4880067;29;20208;-70
2021/04/04 14:19:01;;;;;;;6.30;3.05;;;9.10;99.90;;;;;;4880191;29;20219;-75
2021/04/04 14:21:28;;;;;;;3.47;3.20;;;9.20;99.90;;;;;;4880228;29;20236;-75
2021/04/04 14:23:55;;;;;;;10.02;3.72;;;9.20;99.90;;;;;;4880357;29;20259;-74
2021/04/04 14:26:21;;;;;;;6.18;3.85;;;9.20;99.90;;;;;;4881782;29;20211;-75
2021/04/04 14:28:47;;;;;;;7.25;4.95;;;9.30;99.90;;;;;;4880881;29;20745;-75
2021/04/04 14:31:14;;;;;;;3.15;3.05;;;9.40;99.90;;;;;;4880293;29;20239;-75
2021/04/04 14:33:41;;;;;;;5.13;3.10;;;9.50;99.90;;;;;;4881573;29;20208;-75
2021/04/04 14:36:10;;;;;;;8.70;4.03;;;9.50;99.90;;;;;;4881793;29;20208;-75
2021/04/04 14:38:36;;;;;;;6.70;2.83;;;9.50;99.90;;;;;;4883786;29;20200;-75
2021/04/04 14:41:04;;;;;;;5.43;3.00;;;9.50;99.90;;;;;;4881256;29;20232;-75
2021/04/04 14:43:38;;;;;;;8.45;3.97;;;9.40;99.90;;;;;;4882707;29;20238;-76
2021/04/04 14:46:04;;;;;;;5.35;3.88;;;9.40;99.90;;;;;;4883897;29;20200;-75
2021/04/04 14:48:30;;;;;;;4.72;3.33;;;9.40;99.90;;;;;;4881910;29;20212;-75
2021/04/04 14:50:59;;;;;;;9.43;4.07;;;9.50;99.90;;;;;;4881045;29;20802;-75
2021/04/04 14:53:25;;;;;;;6.13;5.30;;;9.40;99.90;;;;;;4873031;29;20220;-75
2021/04/04 14:55:52;;;;;;;4.72;4.15;;;9.40;99.90;;;;;;4879726;29;20579;-74
2021/04/04 14:58:20;;;;;;;6.43;4.03;;;9.40;99.90;;;;;;4878978;29;20569;-75
2021/04/04 15:00:48;;;;;;;11.05;4.80;;;9.30;99.90;;;;;;4879294;29;20339;-73
2021/04/04 15:03:15;;;;;;;5.32;4.85;;;9.30;99.90;;;;;;4879458;29;20269;-75
2021/04/04 15:05:42;;;;;;;5.70;4.22;;;9.30;99.90;;;;;;4879165;29;20280;-75
2021/04/04 15:08:09;;;;;;;5.78;4.40;;;9.30;99.90;;;;;;4877821;29;20615;-74
2021/04/04 15:10:36;;;;;;;6.00;4.43;;;9.30;99.90;;;;;;4872300;29;20238;-75
2021/04/04 15:13:02;;;;;;;5.80;4.35;;;9.20;99.90;;;;;;4878387;29;20219;-75
2021/04/04 15:15:30;;;;;;;10.13;6.40;;;9.20;99.90;;;;;;4875405;29;20644;-74
2021/04/04 15:17:57;;;;;;;8.10;4.97;;;9.10;99.90;;;;;;4880537;29;20275;-75
2021/04/04 15:20:24;;;;;;;7.30;5.47;;;9.20;99.90;;;;;;4879873;29;20212;-75
2021/04/04 15:22:50;;;;;;;7.43;4.55;;;9.20;99.90;;;;;;4879615;29;20208;-75
2021/04/04 15:25:19;;;;;;;4.70;4.30;;;9.30;99.90;;;;;;4880132;29;20216;-74
2021/04/04 15:27:45;;;;;;;4.53;4.20;;;9.30;99.90;;;;;;4877666;29;20231;-75
2021/04/04 15:30:27;;;;;;;8.68;4.20;;;9.30;99.90;;;;;;4879396;29;20215;-74
2021/04/04 15:32:55;;;;;;;10.57;8.68;;;9.20;99.90;;;;;;4874265;29;20603;-75
2021/04/04 15:35:22;;;;;;;8.18;5.82;;;9.20;99.90;;;;;;4878829;29;20634;-74
2021/04/04 15:37:48;;;;;;;7.72;6.20;;;9.20;99.90;;;;;;4877251;29;20339;-74
2021/04/04 15:40:15;;;;;;;9.38;5.95;;;9.10;99.90;;;;;;4878779;29;20201;-72
2021/04/04 15:42:41;;;;;;;5.95;5.47;;;9.10;99.90;;;;;;4875496;29;20286;-74
2021/04/04 15:45:10;;;;;;;5.68;5.13;;;9.00;99.90;;;;;;4878765;29;20212;-74
2021/04/04 15:47:37;;;;;;;6.90;4.25;;;9.00;99.90;;;;;;4869345;29;20235;-75
2021/04/04 15:50:04;;;;;;;7.13;5.35;;;9.00;99.90;;;;;;4876797;29;20215;-73
2021/04/04 15:52:31;;;;;;;10.30;7.50;;;9.00;99.90;;;;;;4878781;29;20242;-74
2021/04/04 15:54:57;;;;;;;6.50;5.90;;;8.90;99.90;;;;;;4879370;29;20208;-73
2021/04/04 15:57:23;;;;;;;6.63;5.13;;;8.90;99.90;;;;;;4879409;29;20298;-74
2021/04/04 15:59:49;;;;;;;6.97;5.43;;;8.90;99.90;;;;;;4879548;29;20199;-74
2021/04/04 16:02:15;;;;;;;9.50;7.63;;;8.90;99.90;;;;;;4879150;29;20711;-71
2021/04/04 16:04:42;;;;;;;9.20;5.80;;;8.90;99.90;;;;;;4876586;29;20208;-71
2021/04/04 16:07:09;;;;;;;8.32;5.78;;;8.90;99.90;;;;;;4858988;29;20236;-71
2021/04/04 16:09:35;;;;;;;8.85;5.85;;;8.90;99.90;;;;;;4873810;29;20223;-71
2021/04/04 16:12:02;;;;;;;5.47;4.70;;;8.90;99.90;;;;;;4877985;29;20329;-71
2021/04/04 16:14:28;;;;;;;8.98;5.18;;;8.80;99.90;;;;;;4877268;29;20580;-71
2021/04/04 16:16:54;;;;;;;5.82;4.72;;;8.80;99.90;;;;;;4878264;29;20231;-71
2021/04/04 16:19:20;;;;;;;4.70;4.30;;;8.80;99.90;;;;;;4877354;29;20212;-71
2021/04/04 16:21:46;;;;;;;7.15;5.03;;;8.70;99.90;;;;;;4876823;29;20716;-71
2021/04/04 16:24:13;;;;;;;6.40;3.60;;;8.70;99.90;;;;;;4876908;29;20238;-71
2021/04/04 16:26:40;;;;;;;8.80;6.20;;;8.60;99.90;;;;;;4877504;29;20223;-72
2021/04/04 16:29:06;;;;;;;7.75;4.57;;;8.60;99.90;;;;;;4877512;29;20212;-72
2021/04/04 16:31:32;;;;;;;6.68;4.45;;;8.50;99.90;;;;;;4877503;29;20680;-72
2021/04/04 16:33:58;;;;;;;7.78;5.03;;;8.50;99.90;;;;;;4877125;29;20219;-72
2021/04/04 16:36:24;;;;;;;10.20;9.10;;;8.50;99.90;;;;;;4876264;29;20220;-72
2021/04/04 16:38:51;;;;;;;5.63;4.20;;;8.50;99.90;;;;;;4877834;29;20295;-72
2021/04/04 16:41:17;;;;;;;6.63;3.88;;;8.50;99.90;;;;;;4877307;29;20232;-72
2021/04/04 16:43:44;;;;;;;6.40;4.75;;;8.40;99.90;;;;;;4876953;29;20288;-72
2021/04/04 16:46:10;;;;;;;6.38;5.75;;;8.40;99.90;;;;;;4877777;29;20215;-72
2021/04/04 16:48:36;;;;;;;6.10;4.68;;;8.40;99.90;;;;;;4877907;29;20594;-72
2021/04/04 16:51:02;;;;;;;6.53;4.45;;;8.40;99.90;;;;;;4877767;29;20287;-72
2021/04/04 16:53:29;;;;;;;8.40;4.95;;;8.40;99.90;;;;;;4874032;29;20220;-72
2021/04/04 16:55:55;;;;;;;5.70;4.10;;;8.40;99.90;;;;;;4878400;29;20215;-72
2021/04/04 16:58:23;;;;;;;12.48;5.97;;;8.30;99.90;;;;;;4881059;29;20212;-72
2021/04/04 17:00:49;;;;;;;8.25;5.18;;;8.30;99.90;;;;;;4881747;29;20251;-74
2021/04/04 17:03:15;;;;;;;9.38;5.65;;;8.30;99.90;;;;;;4880917;29;20204;-73
2021/04/04 17:05:42;;;;;;;9.60;5.40;;;8.30;99.90;;;;;;4882068;29;20212;-73
2021/04/04 17:08:08;;;;;;;6.40;4.90;;;8.30;99.90;;;;;;4868740;29;20233;-73
2021/04/04 17:10:34;;;;;;;11.77;5.85;;;8.30;99.90;;;;;;4881551;29;20266;-72